Time;durP1;ratioP1;P1;durP2;ratioP2;P2;SDS_P1;SDS_P2;PMS_P1;PMS_P2;Temp;Humidity;BMP_temperature;BMP_pressure;BME280_temperature;BME280_humidity;BME280_pressure;Samples;Min_cycle;Max_cycle;Signal;HPM_P1;HPM_P2
2022/01/30 00:01:25;;;;;;;50.58;4.95;;;;;;;5.96;100.00;102312.50;4985281;28;20065;-82
2022/01/30 00:03:51;;;;;;;72.60;5.80;;;;;;;5.87;100.00;102320.97;5006476;28;20129;-83
2022/01/30 00:06:17;;;;;;;90.90;6.53;;;;;;;6.10;100.00;102346.47;5002264;28;20037;-83
2022/01/30 00:08:42;;;;;;;64.43;5.60;;;;;;;6.05;100.00;102355.69;5029271;28;20014;-82
2022/01/30 00:11:22;;;;;;;62.17;5.03;;;;;;;5.97;100.00;102341.50;4983894;28;20022;-81
2022/01/30 00:13:48;;;;;;;72.45;5.63;;;;;;;5.94;100.00;102355.16;4982579;28;20034;-81
2022/01/30 00:16:16;;;;;;;75.57;8.98;;;;;;;6.01;100.00;102362.16;4984799;28;20045;-81
2022/01/30 00:23:59;;;;;;;81.30;4.85;;;;;;;5.80;100.00;102347.47;5032311;28;20034;-81
2022/01/30 00:26:30;;;;;;;85.43;7.03;;;;;;;5.82;100.00;102355.56;5000422;28;20130;-82
2022/01/30 00:28:56;;;;;;;59.63;7.35;;;;;;;5.94;100.00;102357.00;5033186;28;20026;-81
2022/01/30 00:31:24;;;;;;;62.63;5.53;;;;;;;5.85;100.00;102359.09;5002041;28;20037;-81
2022/01/30 00:33:50;;;;;;;75.63;6.68;;;;;;;5.78;100.00;102359.34;4999801;28;20044;-81
2022/01/30 00:36:15;;;;;;;64.30;5.05;;;;;;;5.73;100.00;102358.63;5032863;28;20034;-82
2022/01/30 00:38:41;;;;;;;60.72;4.88;;;;;;;5.74;100.00;102374.88;4999321;28;20060;-81
2022/01/30 00:41:07;;;;;;;82.70;6.00;;;;;;;5.73;100.00;102375.81;5000452;28;20027;-82
2022/01/30 00:43:32;;;;;;;65.65;6.22;;;;;;;5.60;100.00;102364.47;5000379;28;20108;-81
2022/01/30 00:45:58;;;;;;;72.88;5.65;;;;;;;5.68;100.00;102362.38;5002677;28;20116;-81
2022/01/30 00:48:23;;;;;;;60.63;4.95;;;;;;;5.67;100.00;102371.50;5010539;28;20034;-80
2022/01/30 00:50:50;;;;;;;71.30;5.10;;;;;;;5.61;100.00;102371.69;5000104;28;20058;-81
2022/01/30 00:53:16;;;;;;;57.47;4.72;;;;;;;5.68;100.00;102377.81;5000272;28;20034;-81
2022/01/30 00:55:42;;;;;;;81.65;6.80;;;;;;;5.64;100.00;102378.84;4999127;28;20046;-81
2022/01/30 00:58:07;;;;;;;65.10;4.80;;;;;;;5.64;100.00;102381.53;5015375;28;20385;-81
2022/01/30 01:00:34;;;;;;;88.63;6.43;;;;;;;5.74;100.00;102387.56;4966857;28;20126;-81
2022/01/30 01:03:00;;;;;;;64.55;5.50;;;;;;;5.59;100.00;102381.72;5000787;28;20058;-81
2022/01/30 01:05:27;;;;;;;84.07;5.40;;;;;;;5.54;100.00;102389.13;5015606;28;20057;-80
2022/01/30 01:07:55;;;;;;;60.22;4.72;;;;;;;5.56;100.00;102389.97;5015946;28;20066;-81
2022/01/30 01:23:43;;;;;;;79.72;6.05;;;;;;;5.40;100.00;102389.59;5000774;28;20569;-81
2022/01/30 01:26:09;;;;;;;59.10;4.20;;;;;;;5.33;100.00;102383.47;5004594;28;20423;-81
2022/01/30 01:28:34;;;;;;;72.53;5.80;;;;;;;5.27;100.00;102385.50;5005985;28;20041;-81
2022/01/30 01:31:00;;;;;;;79.65;5.32;;;;;;;5.31;100.00;102390.78;4999760;28;20052;-81
2022/01/30 01:33:35;;;;;;;76.32;4.85;;;;;;;5.41;100.00;102391.38;4998186;28;20034;-81
2022/01/30 01:36:01;;;;;;;71.25;6.85;;;;;;;5.30;100.00;102402.56;4998872;28;20550;-81
2022/01/30 01:38:26;;;;;;;67.85;7.30;;;;;;;5.31;100.00;102403.44;4999596;28;20058;-81
2022/01/30 01:40:54;;;;;;;75.40;6.35;;;;;;;5.34;100.00;102406.06;4998455;28;20464;-82
2022/01/30 01:43:20;;;;;;;79.07;6.45;;;;;;;5.34;100.00;102404.28;4997964;28;20034;-82
2022/01/30 01:45:49;;;;;;;47.22;5.00;;;;;;;5.32;100.00;102397.97;4993037;28;20031;-82
2022/01/30 01:48:15;;;;;;;56.38;5.25;;;;;;;5.28;100.00;102401.75;4997497;28;20088;-81
2022/01/30 01:50:45;;;;;;;69.18;4.93;;;;;;;5.28;100.00;102399.03;4998857;28;20038;-81
2022/01/30 01:53:13;;;;;;;55.95;4.70;;;;;;;5.26;100.00;102403.63;4993295;28;20022;-81
2022/01/30 01:55:40;;;;;;;69.30;6.20;;;;;;;5.25;100.00;102400.97;5001874;28;20129;-81
2022/01/30 01:58:06;;;;;;;53.85;5.40;;;;;;;5.24;100.00;102412.75;4990704;28;20038;-81
2022/01/30 02:00:32;;;;;;;89.85;6.07;;;;;;;5.11;100.00;102404.09;4994905;28;20402;-81
2022/01/30 02:02:58;;;;;;;54.35;4.25;;;;;;;5.12;100.00;102400.44;5011334;28;20034;-81
2022/01/30 02:05:28;;;;;;;85.18;5.40;;;;;;;5.12;100.00;102406.75;4998509;28;20092;-81
2022/01/30 02:10:34;;;;;;;66.68;5.68;;;;;;;4.99;100.00;102401.78;5017029;28;20026;-81
2022/01/30 02:13:18;;;;;;;75.05;5.78;;;;;;;4.80;100.00;102377.88;4990855;28;20089;-81
2022/01/30 02:23:57;;;;;;;65.53;6.10;;;;;;;4.81;100.00;102386.94;4999912;28;20030;-81
2022/01/30 02:24:07;;;;;;;56.33;4.65;;;;;;;4.71;100.00;102402.59;4997787;28;20038;-81
2022/01/30 02:26:41;;;;;;;79.55;5.85;;;;;;;4.76;100.00;102400.63;4996610;28;20065;-81
2022/01/30 02:29:07;;;;;;;56.55;5.53;;;;;;;4.68;100.00;102394.56;5014606;28;20116;-81
2022/01/30 02:31:37;;;;;;;81.47;7.60;;;;;;;4.74;100.00;102392.53;4997804;28;20030;-81
2022/01/30 02:34:02;;;;;;;69.68;6.53;;;;;;;4.69;100.00;102393.59;4997960;28;20072;-81
2022/01/30 02:36:28;;;;;;;61.25;6.60;;;;;;;4.66;100.00;102388.28;4997091;28;20026;-81
2022/01/30 02:38:57;;;;;;;64.63;5.45;;;;;;;4.75;100.00;102396.13;5003514;28;20077;-81
2022/01/30 02:41:23;;;;;;;67.63;5.35;;;;;;;4.76;100.00;102392.50;4982723;28;20034;-80
2022/01/30 02:44:04;;;;;;;56.28;4.07;;;;;;;4.67;100.00;102399.06;4980124;28;20027;-81
2022/01/30 02:46:33;;;;;;;51.60;5.43;;;;;;;4.73;100.00;102398.88;4990274;28;20030;-81
2022/01/30 02:49:11;;;;;;;61.65;5.97;;;;;;;4.75;100.00;102402.44;4997151;28;20034;-80
2022/01/30 02:51:48;;;;;;;48.47;4.20;;;;;;;4.76;100.00;102398.81;4979520;28;20041;-81
2022/01/30 02:54:13;;;;;;;;;;;;;;;4.73;100.00;102401.59;4997513;28;20479;-80
2022/01/30 02:56:40;;;;;;;66.57;5.20;;;;;;;4.71;100.00;102403.47;5011761;28;20049;-80
2022/01/30 02:59:06;;;;;;;63.05;5.00;;;;;;;4.65;100.00;102405.50;5012862;28;20534;-80
2022/01/30 03:01:32;;;;;;;64.40;4.38;;;;;;;4.59;100.00;102410.16;4996700;28;20050;-80
2022/01/30 03:03:58;;;;;;;75.63;6.22;;;;;;;4.55;100.00;102411.16;4996892;28;20485;-80
2022/01/30 03:06:24;;;;;;;71.57;5.88;;;;;;;4.65;100.00;102417.22;4997007;28;20033;-80
2022/01/30 03:08:49;;;;;;;89.72;6.38;;;;;;;4.59;100.00;102433.66;4982592;28;20027;-80
2022/01/30 03:11:15;;;;;;;68.93;5.78;;;;;;;4.53;100.00;102423.91;5000531;28;20034;-81
2022/01/30 03:13:40;;;;;;;59.28;6.53;;;;;;;4.49;100.00;102433.03;5001544;28;20039;-81
2022/01/30 03:16:06;;;;;;;66.00;5.38;;;;;;;4.26;100.00;102424.66;5000731;28;20038;-81
2022/01/30 03:18:32;;;;;;;47.78;4.68;;;;;;;4.41;100.00;102446.84;5000460;28;20093;-81
2022/01/30 03:20:57;;;;;;;76.45;6.28;;;;;;;4.41;100.00;102451.34;4999457;28;20026;-81
2022/01/30 03:23:23;;;;;;;60.67;5.35;;;;;;;4.37;100.00;102455.09;5002211;28;20042;-80
2022/01/30 03:25:54;;;;;;;63.53;5.07;;;;;;;4.36;100.00;102453.28;5033370;28;20047;-81
2022/01/30 03:28:20;;;;;;;78.03;6.15;;;;;;;4.38;100.00;102451.44;5016105;28;20018;-80
2022/01/30 03:30:47;;;;;;;62.15;4.82;;;;;;;4.45;100.00;102471.16;4999851;28;20050;-80
2022/01/30 03:33:12;;;;;;;79.65;5.75;;;;;;;4.40;100.00;102471.28;4999833;28;20029;-80
2022/01/30 03:35:38;;;;;;;67.68;4.10;;;;;;;4.40;100.00;102479.41;5009085;28;20113;-81
2022/01/30 03:38:04;;;;;;;49.72;4.13;;;;;;;4.41;100.00;102483.88;5015997;28;20026;-80
2022/01/30 03:40:29;;;;;;;75.97;6.00;;;;;;;4.23;100.00;102450.94;4988057;28;20038;-81
2022/01/30 03:42:55;;;;;;;93.82;7.72;;;;;;;4.41;100.00;102465.81;5004114;28;20030;-81
2022/01/30 03:45:20;;;;;;;56.53;5.47;;;;;;;4.53;100.00;102479.97;4983336;28;20363;-81
2022/01/30 03:47:46;;;;;;;55.83;4.97;;;;;;;4.54;100.00;102481.72;5000673;28;20030;-81
2022/01/30 03:50:11;;;;;;;98.80;7.53;;;;;;;4.58;100.00;102478.03;5000352;28;20405;-81
2022/01/30 03:52:37;;;;;;;66.75;4.53;;;;;;;4.68;100.00;102489.50;4987467;28;20042;-81
2022/01/30 03:55:03;;;;;;;67.63;5.15;;;;;;;4.75;100.00;102491.97;5016150;28;20058;-81
2022/01/30 03:57:28;;;;;;;57.15;5.30;;;;;;;4.72;100.00;102492.09;5001701;28;20386;-81
2022/01/30 03:59:54;;;;;;;63.88;5.72;;;;;;;4.73;100.00;102492.97;5016314;28;20042;-81
2022/01/30 04:02:19;;;;;;;61.53;4.57;;;;;;;4.74;100.00;102490.22;4999750;28;20538;-81
2022/01/30 04:04:45;;;;;;;62.78;5.45;;;;;;;4.66;100.00;102494.97;5000537;28;20076;-80
2022/01/30 04:07:11;;;;;;;76.75;6.65;;;;;;;4.69;100.00;102492.19;5002019;28;20026;-80
2022/01/30 04:09:36;;;;;;;70.90;4.43;;;;;;;4.63;100.00;102496.88;4985165;28;20121;-81
2022/01/30 04:12:02;;;;;;;68.43;3.97;;;;;;;4.67;100.00;102501.28;4986117;28;20519;-80
2022/01/30 04:14:28;;;;;;;47.58;4.22;;;;;;;4.67;100.00;102504.88;5002108;28;20482;-80
2022/01/30 04:16:54;;;;;;;59.05;4.47;;;;;;;4.73;100.00;102498.41;4997341;28;20065;-81
2022/01/30 04:19:20;;;;;;;52.47;4.50;;;;;;;4.66;100.00;102488.66;5001109;28;20041;-80
2022/01/30 04:21:45;;;;;;;59.45;3.92;;;;;;;4.72;100.00;102497.53;5000312;28;20050;-80
2022/01/30 04:24:11;;;;;;;77.60;5.25;;;;;;;4.73;100.00;102499.28;4999514;28;20421;-80
2022/01/30 04:26:36;;;;;;;57.13;4.70;;;;;;;4.65;100.00;102495.88;4981989;28;20032;-80
2022/01/30 04:29:02;;;;;;;59.80;4.82;;;;;;;4.67;100.00;102504.00;4998312;28;20049;-79
2022/01/30 04:31:28;;;;;;;54.10;4.15;;;;;;;4.57;100.00;102497.94;4982909;28;20026;-80
2022/01/30 04:33:54;;;;;;;61.25;5.72;;;;;;;4.55;100.00;102506.09;4999003;28;20049;-80
2022/01/30 04:36:26;;;;;;;51.22;4.57;;;;;;;4.50;100.00;102502.63;5005565;28;20031;-80
2022/01/30 04:39:01;;;;;;;65.75;6.07;;;;;;;4.49;100.00;102500.84;4997355;28;20038;-80
2022/01/30 04:41:57;;;;;;;68.93;5.30;;;;;;;4.51;100.00;102500.78;4997434;28;20080;-80
2022/01/30 05:05:49;;;;;;;42.55;4.38;;;;;;;4.19;100.00;102514.28;5030832;28;20038;-81
2022/01/30 05:08:15;;;;;;;66.03;5.43;;;;;;;4.13;100.00;102521.69;5002840;28;20045;-81
2022/01/30 05:10:41;;;;;;;43.08;3.83;;;;;;;4.16;100.00;102525.19;4996721;28;20129;-80
2022/01/30 05:13:10;;;;;;;52.40;4.03;;;;;;;4.19;100.00;102525.13;5000336;28;20054;-81
2022/01/30 05:15:36;;;;;;;47.35;4.05;;;;;;;4.17;100.00;102539.66;4999662;28;20026;-81
2022/01/30 05:18:02;;;;;;;53.10;6.20;;;;;;;4.07;100.00;102535.38;4982131;28;20516;-80
2022/01/30 05:20:29;;;;;;;51.22;5.13;;;;;;;4.10;100.00;102535.31;5029935;28;20435;-81
2022/01/30 05:22:56;;;;;;;59.22;3.85;;;;;;;4.11;100.00;102535.25;4985298;28;20478;-81
2022/01/30 05:25:21;;;;;;;72.88;4.85;;;;;;;4.12;100.00;102538.88;5030784;28;20030;-81
2022/01/30 05:27:47;;;;;;;82.35;5.60;;;;;;;4.05;100.00;102538.16;5013764;28;20450;-81
2022/01/30 05:30:13;;;;;;;55.67;4.15;;;;;;;4.03;100.00;102546.31;4997911;28;20023;-81
2022/01/30 05:32:39;;;;;;;66.20;4.32;;;;;;;4.06;100.00;102548.03;5000179;28;20046;-80
2022/01/30 05:35:04;;;;;;;73.43;5.05;;;;;;;4.04;100.00;102558.91;5003177;28;20030;-80
2022/01/30 05:37:30;;;;;;;51.50;3.50;;;;;;;3.95;100.00;102547.41;5031116;28;20045;-80
2022/01/30 05:39:56;;;;;;;53.90;4.25;;;;;;;3.92;100.00;102555.63;4999075;28;20030;-80
2022/01/30 05:42:24;;;;;;;63.17;3.80;;;;;;;3.92;100.00;102555.63;5005729;28;20103;-80
2022/01/30 05:45:10;;;;;;;48.00;3.13;;;;;;;3.90;100.00;102558.34;5018620;28;20041;-81
2022/01/30 05:47:45;;;;;;;54.33;3.92;;;;;;;3.92;100.00;102561.94;4999235;28;20497;-80
2022/01/30 05:50:11;;;;;;;54.50;4.53;;;;;;;3.95;100.00;102559.16;5000066;28;20054;-80
2022/01/30 05:52:37;;;;;;;53.65;3.72;;;;;;;3.94;100.00;102560.06;4999693;28;20065;-81
2022/01/30 05:55:03;;;;;;;62.17;5.18;;;;;;;3.91;100.00;102556.56;4982420;28;20050;-79
2022/01/30 05:57:28;;;;;;;66.13;6.15;;;;;;;3.98;100.00;102558.19;5003759;28;20034;-80
2022/01/30 05:59:53;;;;;;;59.92;3.47;;;;;;;3.90;100.00;102552.94;5004064;28;20030;-81
2022/01/30 06:02:19;;;;;;;54.28;3.72;;;;;;;3.92;100.00;102553.81;5012231;28;20180;-80
2022/01/30 06:04:44;;;;;;;57.15;3.97;;;;;;;3.91;100.00;102559.28;4999403;28;20467;-80
2022/01/30 06:07:11;;;;;;;49.13;2.80;;;;;;;3.91;100.00;102567.41;4980164;28;20138;-81
2022/01/30 06:09:37;;;;;;;36.58;2.95;;;;;;;3.92;100.00;102561.94;4995645;28;20030;-80
2022/01/30 06:12:03;;;;;;;47.47;3.38;;;;;;;3.89;100.00;102561.09;4986914;28;20046;-80
2022/01/30 06:14:28;;;;;;;66.13;5.03;;;;;;;3.87;100.00;102566.59;4980634;28;20043;-80
2022/01/30 06:16:54;;;;;;;40.80;3.63;;;;;;;3.88;100.00;102576.47;4982131;28;20034;-80
2022/01/30 06:19:22;;;;;;;60.80;3.78;;;;;;;3.92;100.00;102570.06;5005654;28;20062;-81
2022/01/30 06:21:49;;;;;;;56.72;4.90;;;;;;;3.98;100.00;102569.03;4998027;28;20061;-80
2022/01/30 06:24:15;;;;;;;39.17;2.83;;;;;;;3.98;100.00;102566.31;4981848;28;20026;-80
2022/01/30 06:26:40;;;;;;;70.00;4.40;;;;;;;3.96;100.00;102577.19;4998498;28;20053;-81
2022/01/30 06:29:06;;;;;;;66.82;3.45;;;;;;;3.88;100.00;102573.75;4997315;28;20093;-81
2022/01/30 06:31:31;;;;;;;53.67;4.03;;;;;;;3.89;100.00;102574.66;4987310;28;20035;-81
2022/01/30 06:33:56;;;;;;;49.13;4.43;;;;;;;3.88;100.00;102581.00;4989588;28;20031;-81
2022/01/30 06:36:22;;;;;;;54.33;3.40;;;;;;;3.87;100.00;102577.41;5015788;28;20117;-81
2022/01/30 06:38:49;;;;;;;55.15;3.47;;;;;;;3.83;100.00;102581.13;4981997;28;20022;-83
2022/01/30 06:41:14;;;;;;;50.35;4.55;;;;;;;3.86;100.00;102592.75;4991182;28;20035;-81
2022/01/30 06:43:40;;;;;;;64.82;6.07;;;;;;;3.83;100.00;102597.38;4995192;28;20037;-81
2022/01/30 06:46:06;;;;;;;68.75;3.45;;;;;;;3.84;100.00;102589.22;4991251;28;20033;-81
2022/01/30 06:48:31;;;;;;;43.85;3.50;;;;;;;3.81;100.00;102594.69;4999644;28;20034;-81
2022/01/30 06:50:57;;;;;;;55.15;3.72;;;;;;;3.77;100.00;102598.41;4983435;28;20081;-81
2022/01/30 06:53:24;;;;;;;56.50;4.75;;;;;;;3.71;100.00;102593.13;4995016;28;20069;-81
2022/01/30 06:55:50;;;;;;;52.15;3.83;;;;;;;3.69;100.00;102594.97;4992518;28;20045;-81
2022/01/30 06:58:16;;;;;;;72.47;4.90;;;;;;;3.68;100.00;102607.63;4998312;28;20046;-81
2022/01/30 07:00:41;;;;;;;66.45;5.32;;;;;;;3.62;100.00;102610.47;4997615;28;20040;-80
2022/01/30 07:03:07;;;;;;;70.93;3.45;;;;;;;3.48;100.00;102601.75;4989526;28;20034;-80
2022/01/30 07:05:32;;;;;;;48.28;2.95;;;;;;;3.45;100.00;102613.53;4997617;28;20413;-81
2022/01/30 07:07:58;;;;;;;35.25;2.95;;;;;;;3.42;100.00;102619.00;4995655;28;20478;-81
2022/01/30 07:10:23;;;;;;;39.53;2.63;;;;;;;3.50;100.00;102622.44;4988035;28;20118;-81
2022/01/30 07:12:49;;;;;;;53.28;4.50;;;;;;;3.47;100.00;102619.78;4973036;28;20042;-80
2022/01/30 07:15:14;;;;;;;47.80;3.28;;;;;;;3.55;100.00;102640.44;4994216;28;20027;-81
2022/01/30 07:17:40;;;;;;;50.20;3.55;;;;;;;3.50;100.00;102644.09;4990213;28;20073;-80
2022/01/30 07:20:06;;;;;;;39.38;3.63;;;;;;;3.47;100.00;102637.88;4975778;28;20512;-81
2022/01/30 07:22:32;;;;;;;53.58;4.15;;;;;;;3.50;100.00;102635.09;4986854;28;20042;-80
2022/01/30 07:24:57;;;;;;;56.83;4.28;;;;;;;3.48;100.00;102640.53;4988295;28;20030;-79
2022/01/30 07:27:23;;;;;;;42.55;3.00;;;;;;;3.46;100.00;102630.66;4989191;28;20038;-80
2022/01/30 07:29:48;;;;;;;66.43;3.67;;;;;;;3.54;100.00;102638.63;4993000;28;20027;-80
2022/01/30 07:32:14;;;;;;;65.88;4.60;;;;;;;3.47;100.00;102649.56;4998045;28;20046;-80
2022/01/30 07:34:40;;;;;;;50.55;3.40;;;;;;;3.51;100.00;102653.16;4991695;28;20097;-80
2022/01/30 07:37:05;;;;;;;44.25;3.47;;;;;;;3.45;100.00;102653.25;4991040;28;20034;-80
2022/01/30 07:39:32;;;;;;;66.88;3.90;;;;;;;3.48;100.00;102648.66;4987758;28;20125;-79
2022/01/30 07:41:58;;;;;;;61.00;3.60;;;;;;;3.53;100.00;102661.25;5014401;28;20034;-80
2022/01/30 07:44:24;;;;;;;45.53;2.65;;;;;;;3.46;100.00;102638.78;4992770;28;20046;-81
2022/01/30 07:46:49;;;;;;;65.40;3.85;;;;;;;3.56;100.00;102655.72;4985643;28;20054;-80
2022/01/30 07:49:15;;;;;;;48.67;3.72;;;;;;;3.62;100.00;102670.06;4984958;28;20034;-80
2022/01/30 07:51:40;;;;;;;54.47;3.58;;;;;;;3.64;100.00;102670.00;4996217;28;20027;-79
2022/01/30 07:54:06;;;;;;;48.22;3.28;;;;;;;3.58;100.00;102673.75;4998737;28;20038;-80
2022/01/30 07:56:32;;;;;;;41.50;2.97;;;;;;;3.61;100.00;102675.50;5000347;28;20100;-80
2022/01/30 07:58:57;;;;;;;54.58;3.42;;;;;;;3.60;100.00;102666.47;4997665;28;20486;-80
2022/01/30 08:01:23;;;;;;;31.27;2.55;;;;;;;3.71;100.00;102681.63;4996983;28;20422;-80
2022/01/30 08:03:48;;;;;;;49.40;3.55;;;;;;;3.71;100.00;102682.53;4979609;28;20037;-80
2022/01/30 08:06:13;;;;;;;58.03;4.18;;;;;;;3.73;100.00;102696.03;4994081;28;20034;-80
2022/01/30 08:08:39;;;;;;;65.03;3.88;;;;;;;3.73;100.00;102687.91;4991446;28;20030;-80
2022/01/30 08:11:04;;;;;;;50.13;2.80;;;;;;;3.84;100.00;102688.56;4991398;28;20496;-80
2022/01/30 08:13:30;;;;;;;27.73;2.80;;;;;;;3.90;100.00;102690.25;4986098;28;20081;-79
2022/01/30 08:15:55;;;;;;;49.80;3.28;;;;;;;3.92;100.00;102686.59;4995568;28;20038;-81
2022/01/30 08:18:20;;;;;;;77.78;6.55;;;;;;;4.01;100.00;102699.91;4992292;28;20084;-81
2022/01/30 08:20:46;;;;;;;48.00;3.47;;;;;;;4.12;100.00;102699.69;4996708;28;20043;-80
2022/01/30 08:23:13;;;;;;;37.13;3.13;;;;;;;4.23;100.00;102710.28;5001243;28;20037;-80
2022/01/30 08:25:40;;;;;;;36.88;3.33;;;;;;;4.27;100.00;102693.03;5002020;28;20046;-80
2022/01/30 08:28:06;;;;;;;57.67;4.07;;;;;;;4.36;100.00;102706.38;4998681;28;20084;-79
2022/01/30 08:30:31;;;;;;;53.63;3.10;;;;;;;4.38;100.00;102703.66;4992602;28;20042;-79
2022/01/30 08:33:00;;;;;;;59.35;3.38;;;;;;;4.40;100.00;102690.94;5004182;28;20034;-80
2022/01/30 08:35:26;;;;;;;54.10;5.55;;;;;;;4.49;100.00;102692.53;4987288;28;20038;-80
2022/01/30 08:37:52;;;;;;;51.03;3.60;;;;;;;4.60;100.00;102683.19;4999040;28;20108;-79
2022/01/30 08:40:19;;;;;;;76.45;3.88;;;;;;;4.89;100.00;102705.13;4990958;28;20078;-79
2022/01/30 08:42:46;;;;;;;50.83;3.00;;;;;;;4.89;100.00;102708.72;4992445;28;20034;-81
2022/01/30 08:45:14;;;;;;;54.53;4.38;;;;;;;4.86;100.00;102708.78;4988668;28;20072;-81
2022/01/30 08:47:45;;;;;;;57.60;3.90;;;;;;;4.94;100.00;102709.50;4996738;28;20109;-80
2022/01/30 08:50:12;;;;;;;47.10;4.57;;;;;;;4.89;100.00;102695.16;5000036;28;20069;-80
2022/01/30 08:52:38;;;;;;;65.25;5.65;;;;;;;4.93;100.00;102714.97;4998931;28;20066;-80
2022/01/30 08:55:05;;;;;;;57.72;5.45;;;;;;;4.81;100.00;102702.59;4998878;28;20058;-80
2022/01/30 08:57:31;;;;;;;59.58;4.70;;;;;;;4.91;100.00;102704.13;4994675;28;20540;-81
2022/01/30 08:59:58;;;;;;;56.70;4.05;;;;;;;5.10;100.00;102709.09;5001178;28;20038;-80
2022/01/30 09:02:26;;;;;;;62.40;4.15;;;;;;;5.24;100.00;102709.63;4993856;28;20041;-80
2022/01/30 09:04:52;;;;;;;45.90;3.65;;;;;;;5.28;100.00;102708.63;5000445;28;20077;-80
2022/01/30 09:07:19;;;;;;;52.38;5.35;;;;;;;5.26;100.00;102715.00;5003878;28;20474;-82
2022/01/30 09:09:45;;;;;;;42.00;3.58;;;;;;;5.26;100.00;102715.91;5014331;28;20030;-82
2022/01/30 09:12:11;;;;;;;59.33;3.85;;;;;;;5.26;100.00;102715.91;5016134;28;20045;-83
2022/01/30 09:14:41;;;;;;;66.38;4.30;;;;;;;5.36;100.00;102721.97;5001945;28;20394;-81
2022/01/30 09:17:16;;;;;;;103.13;5.82;;;;;;;5.40;100.00;102720.09;4999182;28;20061;-81
2022/01/30 09:19:43;;;;;;;53.42;3.85;;;;;;;5.39;100.00;102729.16;5031124;28;20442;-82
2022/01/30 09:22:10;;;;;;;39.67;3.47;;;;;;;5.55;100.00;102733.22;5012495;28;20033;-79
2022/01/30 09:24:36;;;;;;;48.83;4.60;;;;;;;5.44;100.00;102730.78;5001915;28;20390;-78
2022/01/30 09:27:03;;;;;;;51.85;5.50;;;;;;;5.34;100.00;102730.19;5011785;28;20434;-79
2022/01/30 09:29:29;;;;;;;64.38;4.72;;;;;;;5.33;100.00;102738.38;4998505;28;20077;-80
2022/01/30 09:31:56;;;;;;;72.63;5.35;;;;;;;5.45;100.00;102742.56;4999381;28;20041;-78
2022/01/30 09:34:22;;;;;;;58.83;4.00;;;;;;;5.67;100.00;102745.56;4991976;28;20026;-78
2022/01/30 09:36:47;;;;;;;38.88;3.80;;;;;;;5.80;100.00;102747.00;4994882;28;20085;-79
2022/01/30 09:39:12;;;;;;;52.80;3.63;;;;;;;5.96;100.00;102741.16;4994576;28;20093;-81
2022/01/30 09:41:39;;;;;;;67.95;3.80;;;;;;;6.00;100.00;102745.56;5001725;28;20034;-80
2022/01/30 09:44:06;;;;;;;56.20;4.32;;;;;;;6.13;100.00;102747.00;5001686;28;20045;-82
2022/01/30 09:46:32;;;;;;;43.72;4.07;;;;;;;6.28;100.00;102747.47;4997520;28;20066;-78
2022/01/30 09:48:59;;;;;;;62.00;4.75;;;;;;;6.27;100.00;102756.59;4995245;28;20060;-79
2022/01/30 09:51:25;;;;;;;48.67;3.67;;;;;;;6.48;100.00;102758.66;5011781;28;20053;-78
2022/01/30 09:53:50;;;;;;;60.20;6.00;;;;;;;6.56;100.00;102747.50;5006156;28;20033;-79
2022/01/30 09:56:18;;;;;;;79.13;5.35;;;;;;;6.96;100.00;102758.00;4996911;28;20494;-78
2022/01/30 09:58:45;;;;;;;75.40;6.72;;;;;;;6.69;100.00;102757.09;4981885;28;20034;-79
2022/01/30 10:01:10;;;;;;;84.63;5.80;;;;;;;6.91;100.00;102761.81;4996685;28;20371;-79
2022/01/30 10:03:36;;;;;;;83.03;5.40;;;;;;;6.96;100.00;102765.28;4993414;28;20038;-79
2022/01/30 10:06:13;;;;;;;65.30;7.93;;;;;;;6.99;100.00;102759.75;5013265;28;20379;-79
2022/01/30 10:08:43;;;;;;;56.83;5.30;;;;;;;6.86;100.00;102772.84;4995977;28;20039;-79
2022/01/30 10:11:27;;;;;;;61.50;6.15;;;;;;;6.75;100.00;102761.41;4994998;28;20382;-78
2022/01/30 10:14:16;;;;;;;75.57;5.63;;;;;;;6.75;100.00;102767.75;4980328;28;20030;-81
2022/01/30 10:16:42;;;;;;;72.82;5.45;;;;;;;6.88;100.00;102770.09;4995276;28;20803;-84
2022/01/30 10:19:13;;;;;;;51.45;4.57;;;;;;;7.04;100.00;102767.75;4995469;28;20117;-79
2022/01/30 10:21:39;;;;;;;69.50;4.82;;;;;;;6.87;100.00;102771.00;4994983;28;20069;-79
2022/01/30 10:24:38;;;;;;;68.50;4.60;;;;;;;6.89;100.00;102780.94;5000526;28;20026;-77
2022/01/30 10:27:24;;;;;;;70.30;5.35;;;;;;;6.84;100.00;102773.84;4998168;28;20057;-77
2022/01/30 10:30:05;;;;;;;93.40;8.20;;;;;;;6.76;100.00;102785.88;4995598;28;20042;-77
2022/01/30 10:32:32;;;;;;;60.22;4.43;;;;;;;6.86;100.00;102786.47;4993461;28;20030;-78
2022/01/30 10:35:06;;;;;;;70.50;5.45;;;;;;;6.79;100.00;102774.88;4996684;28;20025;-78
2022/01/30 10:37:33;;;;;;;68.28;5.15;;;;;;;6.94;100.00;102781.66;4985015;28;20034;-78
2022/01/30 10:40:04;;;;;;;70.63;5.28;;;;;;;6.87;100.00;102780.09;4992613;28;20034;-81
2022/01/30 10:42:48;;;;;;;72.97;6.45;;;;;;;6.79;100.00;102763.13;4994865;28;20354;-78
2022/01/30 10:45:28;;;;;;;75.93;5.55;;;;;;;6.75;100.00;102773.19;4991622;28;20093;-77
2022/01/30 10:48:16;;;;;;;42.85;3.88;;;;;;;7.03;100.00;102776.84;5023512;28;20041;-76
2022/01/30 10:50:44;;;;;;;72.00;5.03;;;;;;;6.91;100.00;102778.16;4982905;28;20081;-76
2022/01/30 10:53:24;;;;;;;68.47;4.82;;;;;;;6.75;100.00;102761.41;4983766;28;20534;-76
2022/01/30 10:55:50;;;;;;;94.97;5.78;;;;;;;6.72;100.00;102765.16;4976085;28;20403;-77
2022/01/30 10:58:19;;;;;;;85.55;7.70;;;;;;;7.05;100.00;102764.06;4989911;28;20034;-76
2022/01/30 11:00:46;;;;;;;89.45;5.25;;;;;;;7.09;100.00;102769.38;4993010;28;20752;-76
2022/01/30 11:03:45;;;;;;;75.65;5.57;;;;;;;7.02;100.00;102770.53;4984920;28;20414;-75
2022/01/30 11:06:13;;;;;;;84.15;6.25;;;;;;;6.98;100.00;102774.28;4983214;28;20030;-77
2022/01/30 11:08:42;;;;;;;54.38;4.03;;;;;;;6.84;100.00;102771.13;4990428;28;20109;-77
2022/01/30 11:19:18;;;;;;;77.50;5.18;;;;;;;7.72;100.00;102763.56;5023359;28;20057;-77
2022/01/30 11:21:47;;;;;;;97.43;7.47;;;;;;;7.63;100.00;102748.44;4987642;28;20041;-77
2022/01/30 11:24:15;;;;;;;77.10;5.32;;;;;;;7.77;100.00;102752.47;5021692;28;20035;-77
2022/01/30 11:26:42;;;;;;;56.55;4.30;;;;;;;7.87;100.00;102734.81;4995010;28;20041;-77
2022/01/30 11:29:14;;;;;;;72.65;7.00;;;;;;;8.00;100.00;102735.25;4994430;28;20038;-77
2022/01/30 11:31:40;;;;;;;65.63;5.63;;;;;;;8.09;100.00;102734.91;4995110;28;20034;-77
2022/01/30 11:34:06;;;;;;;64.70;5.35;;;;;;;8.12;100.00;102733.88;4994493;28;20045;-77
2022/01/30 11:36:41;;;;;;;50.03;4.72;;;;;;;7.76;100.00;102728.91;4994719;28;20070;-77
2022/01/30 11:39:08;;;;;;;93.90;6.60;;;;;;;7.42;100.00;102736.44;4994490;28;20034;-77
2022/01/30 11:41:34;;;;;;;88.55;7.35;;;;;;;7.28;100.00;102723.34;4978504;28;20035;-77
2022/01/30 11:44:18;;;;;;;60.85;4.70;;;;;;;7.23;100.00;102730.78;5008876;28;20038;-76
2022/01/30 11:46:44;;;;;;;79.63;8.13;;;;;;;7.16;100.00;102732.78;5007415;28;20043;-77
2022/01/30 11:49:14;;;;;;;56.85;6.78;;;;;;;7.23;100.00;102724.41;4993742;28;20113;-76
2022/01/30 11:52:02;;;;;;;60.53;5.93;;;;;;;7.60;100.00;102726.72;5004728;28;20070;-77
2022/01/30 11:54:41;;;;;;;60.85;5.72;;;;;;;7.76;100.00;102713.44;4993563;28;20121;-77
2022/01/30 11:57:22;;;;;;;76.65;5.78;;;;;;;7.58;100.00;102723.19;4978163;28;20057;-77
2022/01/30 11:59:52;;;;;;;82.35;6.25;;;;;;;7.44;100.00;102711.88;4995446;28;20061;-77
2022/01/30 12:02:21;;;;;;;75.82;7.38;;;;;;;7.44;100.00;102715.47;4994044;28;20398;-76
2022/01/30 12:05:08;;;;;;;77.18;4.43;;;;;;;7.44;100.00;102717.31;4994348;28;20530;-77
2022/01/30 12:07:48;;;;;;;62.72;5.40;;;;;;;7.31;100.00;102714.13;4991932;28;20038;-77
2022/01/30 12:10:20;;;;;;;59.03;5.68;;;;;;;7.37;100.00;102711.22;4985062;28;20041;-77
2022/01/30 12:12:56;;;;;;;76.90;6.20;;;;;;;7.47;100.00;102704.47;4994688;28;20394;-77
2022/01/30 12:15:42;;;;;;;57.78;6.88;;;;;;;7.64;100.00;102714.78;4995678;28;20053;-77
2022/01/30 12:18:15;;;;;;;75.13;6.28;;;;;;;7.47;100.00;102701.75;4977757;28;20030;-77